sensor_id;sensor_type;location;lat;lon;timestamp;P1;durP1;ratioP1;P2;durP2;ratioP2
26040;SDS011;13816;53.628;9.950;2023-05-10T00:01:23;6.13;;;4.10;;
26040;SDS011;13816;53.628;9.950;2023-05-10T00:04:29;4.00;;;3.33;;
26040;SDS011;13816;53.628;9.950;2023-05-10T00:07:13;8.87;;;3.97;;
26040;SDS011;13816;53.628;9.950;2023-05-10T00:09:56;6.13;;;3.10;;
26040;SDS011;13816;53.628;9.950;2023-05-10T00:12:46;4.33;;;3.67;;
26040;SDS011;13816;53.628;9.950;2023-05-10T00:16:08;7.20;;;3.50;;
26040;SDS011;13816;53.628;9.950;2023-05-10T00:18:56;7.03;;;3.47;;
26040;SDS011;13816;53.628;9.950;2023-05-10T00:22:47;6.27;;;3.67;;
26040;SDS011;13816;53.628;9.950;2023-05-10T00:26:02;4.50;;;3.73;;
26040;SDS011;13816;53.628;9.950;2023-05-10T00:40:09;5.50;;;4.13;;
26040;SDS011;13816;53.628;9.950;2023-05-10T00:43:20;5.80;;;4.67;;
26040;SDS011;13816;53.628;9.950;2023-05-10T00:46:38;4.70;;;3.87;;
26040;SDS011;13816;53.628;9.950;2023-05-10T00:57:12;5.93;;;4.03;;
26040;SDS011;13816;53.628;9.950;2023-05-10T01:00:11;6.50;;;4.00;;
26040;SDS011;13816;53.628;9.950;2023-05-10T01:02:54;10.57;;;3.90;;
26040;SDS011;13816;53.628;9.950;2023-05-10T01:05:47;12.03;;;4.20;;
26040;SDS011;13816;53.628;9.950;2023-05-10T01:09:21;4.57;;;3.63;;
26040;SDS011;13816;53.628;9.950;2023-05-10T01:12:32;5.60;;;3.87;;
26040;SDS011;13816;53.628;9.950;2023-05-10T02:03:11;8.43;;;4.40;;
26040;SDS011;13816;53.628;9.950;2023-05-10T02:13:19;5.50;;;4.03;;
26040;SDS011;13816;53.628;9.950;2023-05-10T02:17:11;4.47;;;4.07;;
26040;SDS011;13816;53.628;9.950;2023-05-10T02:20:16;7.90;;;4.87;;
26040;SDS011;13816;53.628;9.950;2023-05-10T02:23:35;5.20;;;4.40;;
26040;SDS011;13816;53.628;9.950;2023-05-10T02:26:43;9.73;;;3.93;;
26040;SDS011;13816;53.628;9.950;2023-05-10T02:29:47;4.10;;;3.80;;
26040;SDS011;13816;53.628;9.950;2023-05-10T02:33:53;4.57;;;3.80;;
26040;SDS011;13816;53.628;9.950;2023-05-10T02:40:25;6.23;;;4.50;;
26040;SDS011;13816;53.628;9.950;2023-05-10T02:43:24;11.23;;;3.97;;
26040;SDS011;13816;53.628;9.950;2023-05-10T03:26:05;6.73;;;4.43;;
26040;SDS011;13816;53.628;9.950;2023-05-10T03:34:45;14.60;;;4.70;;
26040;SDS011;13816;53.628;9.950;2023-05-10T03:38:04;7.13;;;4.17;;
26040;SDS011;13816;53.628;9.950;2023-05-10T03:41:11;6.90;;;4.13;;
26040;SDS011;13816;53.628;9.950;2023-05-10T04:12:19;5.97;;;4.80;;
26040;SDS011;13816;53.628;9.950;2023-05-10T04:16:02;8.10;;;4.00;;
26040;SDS011;13816;53.628;9.950;2023-05-10T04:22:20;14.93;;;4.50;;
26040;SDS011;13816;53.628;9.950;2023-05-10T04:26:21;6.97;;;4.50;;
26040;SDS011;13816;53.628;9.950;2023-05-10T04:36:43;13.57;;;4.30;;
26040;SDS011;13816;53.628;9.950;2023-05-10T04:39:48;6.50;;;4.63;;
26040;SDS011;13816;53.628;9.950;2023-05-10T04:42:36;5.83;;;4.40;;
26040;SDS011;13816;53.628;9.950;2023-05-10T04:46:19;7.70;;;5.10;;
26040;SDS011;13816;53.628;9.950;2023-05-10T04:53:50;8.07;;;4.97;;
26040;SDS011;13816;53.628;9.950;2023-05-10T05:01:21;7.50;;;4.57;;
26040;SDS011;13816;53.628;9.950;2023-05-10T05:04:36;5.27;;;4.57;;
26040;SDS011;13816;53.628;9.950;2023-05-10T05:08:16;5.80;;;4.30;;
26040;SDS011;13816;53.628;9.950;2023-05-10T05:12:04;9.70;;;4.90;;
26040;SDS011;13816;53.628;9.950;2023-05-10T05:15:18;6.07;;;4.77;;
26040;SDS011;13816;53.628;9.950;2023-05-10T05:18:29;7.43;;;4.97;;
26040;SDS011;13816;53.628;9.950;2023-05-10T05:22:29;8.30;;;5.00;;
26040;SDS011;13816;53.628;9.950;2023-05-10T05:25:19;6.63;;;4.20;;
26040;SDS011;13816;53.628;9.950;2023-05-10T05:29:00;6.17;;;4.10;;
26040;SDS011;13816;53.628;9.950;2023-05-10T05:32:32;7.10;;;5.50;;
26040;SDS011;13816;53.628;9.950;2023-05-10T05:36:12;9.70;;;4.67;;
26040;SDS011;13816;53.628;9.950;2023-05-10T05:46:21;6.17;;;4.53;;
26040;SDS011;13816;53.628;9.950;2023-05-10T06:14:45;11.27;;;5.10;;
26040;SDS011;13816;53.628;9.950;2023-05-10T06:22:52;4.77;;;4.30;;
26040;SDS011;13816;53.628;9.950;2023-05-10T06:35:04;11.90;;;4.47;;
26040;SDS011;13816;53.628;9.950;2023-05-10T06:42:05;6.63;;;5.00;;
26040;SDS011;13816;53.628;9.950;2023-05-10T06:45:29;8.57;;;5.07;;
26040;SDS011;13816;53.628;9.950;2023-05-10T06:52:20;5.03;;;4.53;;
26040;SDS011;13816;53.628;9.950;2023-05-10T06:54:57;6.47;;;4.70;;
26040;SDS011;13816;53.628;9.950;2023-05-10T06:57:25;6.20;;;5.07;;
26040;SDS011;13816;53.628;9.950;2023-05-10T07:00:03;5.80;;;4.87;;
26040;SDS011;13816;53.628;9.950;2023-05-10T07:02:31;9.90;;;4.80;;
26040;SDS011;13816;53.628;9.950;2023-05-10T07:04:59;20.70;;;5.43;;
26040;SDS011;13816;53.628;9.950;2023-05-10T07:07:28;10.30;;;5.00;;
26040;SDS011;13816;53.628;9.950;2023-05-10T07:09:56;6.80;;;4.60;;
26040;SDS011;13816;53.628;9.950;2023-05-10T07:12:24;12.43;;;4.33;;
26040;SDS011;13816;53.628;9.950;2023-05-10T07:14:52;12.40;;;4.70;;
26040;SDS011;13816;53.628;9.950;2023-05-10T07:17:20;5.20;;;4.43;;
26040;SDS011;13816;53.628;9.950;2023-05-10T07:19:48;8.17;;;4.87;;
26040;SDS011;13816;53.628;9.950;2023-05-10T07:22:16;6.37;;;4.67;;
26040;SDS011;13816;53.628;9.950;2023-05-10T07:24:44;6.47;;;4.23;;
26040;SDS011;13816;53.628;9.950;2023-05-10T07:27:12;8.80;;;4.93;;
26040;SDS011;13816;53.628;9.950;2023-05-10T07:29:40;6.50;;;4.90;;
26040;SDS011;13816;53.628;9.950;2023-05-10T07:32:09;11.83;;;5.00;;
26040;SDS011;13816;53.628;9.950;2023-05-10T07:34:37;6.83;;;4.90;;
26040;SDS011;13816;53.628;9.950;2023-05-10T07:37:04;5.60;;;4.80;;
26040;SDS011;13816;53.628;9.950;2023-05-10T07:39:32;7.77;;;4.93;;
26040;SDS011;13816;53.628;9.950;2023-05-10T07:42:00;10.40;;;4.93;;
26040;SDS011;13816;53.628;9.950;2023-05-10T07:44:28;6.07;;;4.77;;
26040;SDS011;13816;53.628;9.950;2023-05-10T07:46:55;5.10;;;4.57;;
26040;SDS011;13816;53.628;9.950;2023-05-10T07:49:23;6.50;;;4.67;;
26040;SDS011;13816;53.628;9.950;2023-05-10T07:51:51;10.17;;;5.00;;
26040;SDS011;13816;53.628;9.950;2023-05-10T07:54:19;9.03;;;4.80;;
26040;SDS011;13816;53.628;9.950;2023-05-10T07:56:47;9.90;;;5.27;;
26040;SDS011;13816;53.628;9.950;2023-05-10T07:59:18;10.93;;;4.70;;
26040;SDS011;13816;53.628;9.950;2023-05-10T08:01:48;6.57;;;4.53;;
26040;SDS011;13816;53.628;9.950;2023-05-10T08:04:16;5.20;;;4.43;;
26040;SDS011;13816;53.628;9.950;2023-05-10T08:06:44;4.70;;;4.30;;
26040;SDS011;13816;53.628;9.950;2023-05-10T08:09:12;4.80;;;4.40;;
26040;SDS011;13816;53.628;9.950;2023-05-10T08:11:40;8.13;;;5.33;;
26040;SDS011;13816;53.628;9.950;2023-05-10T08:14:08;9.63;;;5.10;;
26040;SDS011;13816;53.628;9.950;2023-05-10T08:16:36;7.83;;;4.70;;
26040;SDS011;13816;53.628;9.950;2023-05-10T08:19:03;8.23;;;5.10;;
26040;SDS011;13816;53.628;9.950;2023-05-10T08:21:31;7.00;;;5.50;;
26040;SDS011;13816;53.628;9.950;2023-05-10T08:23:59;6.40;;;4.23;;
26040;SDS011;13816;53.628;9.950;2023-05-10T08:26:27;9.40;;;4.80;;
26040;SDS011;13816;53.628;9.950;2023-05-10T08:28:54;14.80;;;5.03;;
26040;SDS011;13816;53.628;9.950;2023-05-10T08:31:22;4.90;;;4.50;;
26040;SDS011;13816;53.628;9.950;2023-05-10T08:33:49;12.00;;;4.97;;
26040;SDS011;13816;53.628;9.950;2023-05-10T08:36:19;7.73;;;5.80;;
26040;SDS011;13816;53.628;9.950;2023-05-10T08:38:51;5.70;;;4.73;;
26040;SDS011;13816;53.628;9.950;2023-05-10T08:41:19;8.73;;;5.70;;
26040;SDS011;13816;53.628;9.950;2023-05-10T08:43:47;13.50;;;5.50;;
26040;SDS011;13816;53.628;9.950;2023-05-10T08:46:16;8.97;;;5.33;;
26040;SDS011;13816;53.628;9.950;2023-05-10T08:48:45;13.03;;;5.57;;
26040;SDS011;13816;53.628;9.950;2023-05-10T08:51:13;5.57;;;4.10;;
26040;SDS011;13816;53.628;9.950;2023-05-10T08:53:41;7.20;;;4.60;;
26040;SDS011;13816;53.628;9.950;2023-05-10T08:56:09;12.23;;;4.60;;
26040;SDS011;13816;53.628;9.950;2023-05-10T08:58:37;10.67;;;5.80;;
26040;SDS011;13816;53.628;9.950;2023-05-10T09:01:07;7.30;;;5.30;;
26040;SDS011;13816;53.628;9.950;2023-05-10T09:03:37;8.73;;;5.37;;
26040;SDS011;13816;53.628;9.950;2023-05-10T09:06:05;5.60;;;5.00;;
26040;SDS011;13816;53.628;9.950;2023-05-10T09:08:33;11.13;;;5.73;;
26040;SDS011;13816;53.628;9.950;2023-05-10T09:11:01;12.00;;;5.57;;
26040;SDS011;13816;53.628;9.950;2023-05-10T09:13:29;13.17;;;5.30;;
26040;SDS011;13816;53.628;9.950;2023-05-10T09:15:57;6.30;;;4.30;;
26040;SDS011;13816;53.628;9.950;2023-05-10T09:18:32;8.03;;;5.07;;
26040;SDS011;13816;53.628;9.950;2023-05-10T09:21:00;6.63;;;5.13;;
26040;SDS011;13816;53.628;9.950;2023-05-10T09:23:36;8.50;;;4.83;;
26040;SDS011;13816;53.628;9.950;2023-05-10T09:26:07;7.73;;;4.90;;
26040;SDS011;13816;53.628;9.950;2023-05-10T09:28:34;11.50;;;5.70;;
26040;SDS011;13816;53.628;9.950;2023-05-10T09:31:17;10.20;;;5.60;;
26040;SDS011;13816;53.628;9.950;2023-05-10T09:33:45;9.00;;;5.60;;
26040;SDS011;13816;53.628;9.950;2023-05-10T09:36:13;8.63;;;4.87;;
26040;SDS011;13816;53.628;9.950;2023-05-10T09:41:18;13.03;;;5.20;;
26040;SDS011;13816;53.628;9.950;2023-05-10T09:43:46;8.33;;;5.30;;
26040;SDS011;13816;53.628;9.950;2023-05-10T09:46:17;8.70;;;5.57;;
26040;SDS011;13816;53.628;9.950;2023-05-10T09:48:45;10.07;;;6.23;;
26040;SDS011;13816;53.628;9.950;2023-05-10T09:51:24;14.30;;;6.60;;
26040;SDS011;13816;53.628;9.950;2023-05-10T09:54:08;10.90;;;6.07;;
26040;SDS011;13816;53.628;9.950;2023-05-10T09:56:36;11.07;;;5.60;;
26040;SDS011;13816;53.628;9.950;2023-05-10T09:59:11;12.83;;;6.13;;
26040;SDS011;13816;53.628;9.950;2023-05-10T10:01:39;11.33;;;6.23;;
26040;SDS011;13816;53.628;9.950;2023-05-10T10:04:08;7.23;;;6.33;;
26040;SDS011;13816;53.628;9.950;2023-05-10T10:06:37;7.30;;;6.57;;
26040;SDS011;13816;53.628;9.950;2023-05-10T10:09:05;9.00;;;7.03;;
26040;SDS011;13816;53.628;9.950;2023-05-10T10:11:34;7.80;;;6.90;;
26040;SDS011;13816;53.628;9.950;2023-05-10T10:14:01;9.73;;;7.07;;
26040;SDS011;13816;53.628;9.950;2023-05-10T10:16:29;7.90;;;6.80;;
26040;SDS011;13816;53.628;9.950;2023-05-10T10:18:57;8.57;;;7.00;;
26040;SDS011;13816;53.628;9.950;2023-05-10T10:21:24;14.50;;;7.63;;
26040;SDS011;13816;53.628;9.950;2023-05-10T10:23:52;12.70;;;8.50;;
26040;SDS011;13816;53.628;9.950;2023-05-10T10:26:20;12.17;;;7.50;;
26040;SDS011;13816;53.628;9.950;2023-05-10T10:29:00;25.87;;;7.57;;
26040;SDS011;13816;53.628;9.950;2023-05-10T10:31:34;8.30;;;7.50;;
26040;SDS011;13816;53.628;9.950;2023-05-10T10:36:45;9.30;;;8.00;;
26040;SDS011;13816;53.628;9.950;2023-05-10T10:39:16;18.20;;;9.07;;
26040;SDS011;13816;53.628;9.950;2023-05-10T10:55:17;9.97;;;8.97;;
26040;SDS011;13816;53.628;9.950;2023-05-10T10:57:52;9.60;;;8.60;;
26040;SDS011;13816;53.628;9.950;2023-05-10T11:00:33;17.40;;;9.17;;
26040;SDS011;13816;53.628;9.950;2023-05-10T11:03:06;10.53;;;8.73;;
26040;SDS011;13816;53.628;9.950;2023-05-10T11:05:38;14.20;;;9.27;;
26040;SDS011;13816;53.628;9.950;2023-05-10T11:10:37;9.43;;;8.50;;
26040;SDS011;13816;53.628;9.950;2023-05-10T11:13:08;10.80;;;9.67;;
26040;SDS011;13816;53.628;9.950;2023-05-10T11:15:39;11.60;;;8.77;;
26040;SDS011;13816;53.628;9.950;2023-05-10T11:18:20;13.97;;;9.30;;
26040;SDS011;13816;53.628;9.950;2023-05-10T11:20:58;13.67;;;10.20;;
26040;SDS011;13816;53.628;9.950;2023-05-10T11:23:30;10.40;;;8.97;;
26040;SDS011;13816;53.628;9.950;2023-05-10T11:25:58;12.70;;;9.90;;
26040;SDS011;13816;53.628;9.950;2023-05-10T11:28:27;15.43;;;9.80;;
26040;SDS011;13816;53.628;9.950;2023-05-10T11:30:54;12.90;;;9.27;;
26040;SDS011;13816;53.628;9.950;2023-05-10T11:33:22;15.57;;;9.50;;
26040;SDS011;13816;53.628;9.950;2023-05-10T11:35:50;12.50;;;10.60;;
26040;SDS011;13816;53.628;9.950;2023-05-10T11:38:18;13.17;;;9.93;;
26040;SDS011;13816;53.628;9.950;2023-05-10T11:40:45;15.77;;;10.13;;
26040;SDS011;13816;53.628;9.950;2023-05-10T11:43:13;19.30;;;11.17;;
26040;SDS011;13816;53.628;9.950;2023-05-10T11:45:41;11.70;;;10.13;;
26040;SDS011;13816;53.628;9.950;2023-05-10T11:48:11;10.50;;;9.50;;
26040;SDS011;13816;53.628;9.950;2023-05-10T11:50:39;12.53;;;9.40;;
26040;SDS011;13816;53.628;9.950;2023-05-10T11:53:07;12.30;;;9.90;;
26040;SDS011;13816;53.628;9.950;2023-05-10T11:55:34;10.60;;;9.50;;
26040;SDS011;13816;53.628;9.950;2023-05-10T11:58:02;12.10;;;10.33;;
26040;SDS011;13816;53.628;9.950;2023-05-10T12:00:29;13.47;;;10.33;;
26040;SDS011;13816;53.628;9.950;2023-05-10T12:02:57;13.87;;;9.47;;
26040;SDS011;13816;53.628;9.950;2023-05-10T12:05:25;14.93;;;9.00;;
26040;SDS011;13816;53.628;9.950;2023-05-10T12:07:53;11.77;;;9.80;;
26040;SDS011;13816;53.628;9.950;2023-05-10T12:10:24;11.77;;;10.30;;
26040;SDS011;13816;53.628;9.950;2023-05-10T12:12:52;15.33;;;10.30;;
26040;SDS011;13816;53.628;9.950;2023-05-10T12:15:21;12.20;;;10.90;;
26040;SDS011;13816;53.628;9.950;2023-05-10T12:17:50;14.90;;;11.07;;
26040;SDS011;13816;53.628;9.950;2023-05-10T12:20:21;16.33;;;11.57;;
26040;SDS011;13816;53.628;9.950;2023-05-10T12:25:17;12.50;;;11.30;;
26040;SDS011;13816;53.628;9.950;2023-05-10T12:27:51;15.43;;;10.70;;
26040;SDS011;13816;53.628;9.950;2023-05-10T12:30:20;12.13;;;10.93;;
26040;SDS011;13816;53.628;9.950;2023-05-10T12:32:48;18.60;;;10.27;;
26040;SDS011;13816;53.628;9.950;2023-05-10T12:35:16;11.93;;;10.27;;
26040;SDS011;13816;53.628;9.950;2023-05-10T12:37:47;11.60;;;9.87;;
26040;SDS011;13816;53.628;9.950;2023-05-10T12:40:15;10.97;;;9.40;;
26040;SDS011;13816;53.628;9.950;2023-05-10T12:42:43;11.53;;;9.67;;
26040;SDS011;13816;53.628;9.950;2023-05-10T12:45:16;12.10;;;9.50;;
26040;SDS011;13816;53.628;9.950;2023-05-10T12:47:46;10.70;;;9.70;;
26040;SDS011;13816;53.628;9.950;2023-05-10T12:50:14;11.00;;;9.90;;
26040;SDS011;13816;53.628;9.950;2023-05-10T12:52:42;13.07;;;9.23;;
26040;SDS011;13816;53.628;9.950;2023-05-10T12:55:09;10.43;;;8.73;;
26040;SDS011;13816;53.628;9.950;2023-05-10T12:58:34;16.60;;;7.40;;
26040;SDS011;13816;53.628;9.950;2023-05-10T13:05:00;10.03;;;9.03;;
26040;SDS011;13816;53.628;9.950;2023-05-10T13:11:56;10.90;;;9.00;;
26040;SDS011;13816;53.628;9.950;2023-05-10T13:14:26;10.20;;;9.20;;
26040;SDS011;13816;53.628;9.950;2023-05-10T13:17:12;9.43;;;7.77;;
26040;SDS011;13816;53.628;9.950;2023-05-10T13:20:22;9.90;;;7.60;;
26040;SDS011;13816;53.628;9.950;2023-05-10T13:23:52;7.70;;;7.00;;
26040;SDS011;13816;53.628;9.950;2023-05-10T13:27:31;8.13;;;7.07;;
26040;SDS011;13816;53.628;9.950;2023-05-10T13:30:54;7.40;;;6.40;;
26040;SDS011;13816;53.628;9.950;2023-05-10T13:37:54;12.00;;;8.10;;
26040;SDS011;13816;53.628;9.950;2023-05-10T13:40:43;9.90;;;8.30;;
26040;SDS011;13816;53.628;9.950;2023-05-10T13:57:01;9.00;;;8.10;;
26040;SDS011;13816;53.628;9.950;2023-05-10T14:05:34;9.27;;;8.37;;
26040;SDS011;13816;53.628;9.950;2023-05-10T14:13:47;8.00;;;7.30;;
26040;SDS011;13816;53.628;9.950;2023-05-10T14:30:02;8.63;;;7.83;;
26040;SDS011;13816;53.628;9.950;2023-05-10T14:46:53;9.03;;;7.93;;
26040;SDS011;13816;53.628;9.950;2023-05-10T14:54:28;7.20;;;6.60;;
26040;SDS011;13816;53.628;9.950;2023-05-10T14:57:49;11.90;;;7.40;;
26040;SDS011;13816;53.628;9.950;2023-05-10T15:05:16;7.50;;;6.70;;
26040;SDS011;13816;53.628;9.950;2023-05-10T15:22:34;7.60;;;6.80;;
26040;SDS011;13816;53.628;9.950;2023-05-10T15:37:02;7.77;;;6.97;;
26040;SDS011;13816;53.628;9.950;2023-05-10T15:43:54;7.20;;;6.60;;
26040;SDS011;13816;53.628;9.950;2023-05-10T15:55:58;7.80;;;6.13;;
26040;SDS011;13816;53.628;9.950;2023-05-10T15:59:37;7.97;;;6.80;;
26040;SDS011;13816;53.628;9.950;2023-05-10T16:14:55;9.63;;;7.80;;
26040;SDS011;13816;53.628;9.950;2023-05-10T16:17:27;9.70;;;8.00;;
26040;SDS011;13816;53.628;9.950;2023-05-10T16:19:59;7.40;;;6.50;;
26040;SDS011;13816;53.628;9.950;2023-05-10T16:22:58;6.00;;;5.50;;
26040;SDS011;13816;53.628;9.950;2023-05-10T16:25:52;7.33;;;6.50;;
26040;SDS011;13816;53.628;9.950;2023-05-10T16:28:25;7.47;;;6.70;;
26040;SDS011;13816;53.628;9.950;2023-05-10T16:31:15;7.30;;;6.63;;
26040;SDS011;13816;53.628;9.950;2023-05-10T16:34:34;16.97;;;12.53;;
26040;SDS011;13816;53.628;9.950;2023-05-10T16:37:28;15.10;;;7.13;;
26040;SDS011;13816;53.628;9.950;2023-05-10T16:40:44;8.57;;;6.67;;
26040;SDS011;13816;53.628;9.950;2023-05-10T16:43:47;8.73;;;5.30;;
26040;SDS011;13816;53.628;9.950;2023-05-10T16:50:22;8.20;;;5.53;;
26040;SDS011;13816;53.628;9.950;2023-05-10T16:53:06;5.70;;;5.00;;
26040;SDS011;13816;53.628;9.950;2023-05-10T16:55:39;7.00;;;6.30;;
26040;SDS011;13816;53.628;9.950;2023-05-10T16:58:18;7.17;;;6.47;;
26040;SDS011;13816;53.628;9.950;2023-05-10T17:01:08;7.37;;;5.90;;
26040;SDS011;13816;53.628;9.950;2023-05-10T17:04:07;6.67;;;6.10;;
26040;SDS011;13816;53.628;9.950;2023-05-10T17:06:50;7.27;;;6.10;;
26040;SDS011;13816;53.628;9.950;2023-05-10T17:10:21;6.20;;;5.60;;
26040;SDS011;13816;53.628;9.950;2023-05-10T17:13:11;6.47;;;5.87;;
26040;SDS011;13816;53.628;9.950;2023-05-10T17:15:53;8.03;;;7.23;;
26040;SDS011;13816;53.628;9.950;2023-05-10T17:18:44;6.97;;;6.10;;
26040;SDS011;13816;53.628;9.950;2023-05-10T17:21:31;6.63;;;6.03;;
26040;SDS011;13816;53.628;9.950;2023-05-10T17:24:38;7.00;;;6.40;;
26040;SDS011;13816;53.628;9.950;2023-05-10T17:28:17;7.03;;;6.33;;
26040;SDS011;13816;53.628;9.950;2023-05-10T17:31:34;6.93;;;6.30;;
26040;SDS011;13816;53.628;9.950;2023-05-10T17:34:23;7.10;;;6.40;;
26040;SDS011;13816;53.628;9.950;2023-05-10T17:37:17;7.70;;;6.23;;
26040;SDS011;13816;53.628;9.950;2023-05-10T17:40:17;7.63;;;6.93;;
26040;SDS011;13816;53.628;9.950;2023-05-10T17:42:59;6.63;;;6.00;;
26040;SDS011;13816;53.628;9.950;2023-05-10T17:46:16;7.23;;;6.63;;
26040;SDS011;13816;53.628;9.950;2023-05-10T17:49:20;9.10;;;8.20;;
26040;SDS011;13816;53.628;9.950;2023-05-10T17:52:00;10.90;;;9.73;;
26040;SDS011;13816;53.628;9.950;2023-05-10T17:54:58;13.03;;;10.23;;
26040;SDS011;13816;53.628;9.950;2023-05-10T17:57:26;11.47;;;9.83;;
26040;SDS011;13816;53.628;9.950;2023-05-10T17:59:56;10.30;;;8.90;;
26040;SDS011;13816;53.628;9.950;2023-05-10T18:02:46;11.73;;;9.50;;
26040;SDS011;13816;53.628;9.950;2023-05-10T18:05:27;9.90;;;8.90;;
26040;SDS011;13816;53.628;9.950;2023-05-10T18:08:09;10.30;;;9.20;;
26040;SDS011;13816;53.628;9.950;2023-05-10T18:10:42;8.83;;;7.93;;
26040;SDS011;13816;53.628;9.950;2023-05-10T18:13:20;10.63;;;8.37;;
26040;SDS011;13816;53.628;9.950;2023-05-10T18:15:53;12.93;;;9.30;;
26040;SDS011;13816;53.628;9.950;2023-05-10T18:18:24;12.10;;;9.03;;
26040;SDS011;13816;53.628;9.950;2023-05-10T18:21:00;13.40;;;9.20;;
26040;SDS011;13816;53.628;9.950;2023-05-10T18:23:30;11.60;;;8.70;;
26040;SDS011;13816;53.628;9.950;2023-05-10T18:26:06;11.00;;;7.90;;
26040;SDS011;13816;53.628;9.950;2023-05-10T18:28:35;10.00;;;8.63;;
26040;SDS011;13816;53.628;9.950;2023-05-10T18:31:12;8.30;;;6.93;;
26040;SDS011;13816;53.628;9.950;2023-05-10T18:33:43;12.13;;;7.27;;
26040;SDS011;13816;53.628;9.950;2023-05-10T18:36:14;6.17;;;5.53;;
26040;SDS011;13816;53.628;9.950;2023-05-10T18:38:42;8.50;;;6.43;;
26040;SDS011;13816;53.628;9.950;2023-05-10T18:41:24;7.70;;;6.10;;
26040;SDS011;13816;53.628;9.950;2023-05-10T18:43:58;6.40;;;5.73;;
26040;SDS011;13816;53.628;9.950;2023-05-10T18:46:31;6.93;;;6.10;;
26040;SDS011;13816;53.628;9.950;2023-05-10T18:49:04;7.70;;;5.80;;
26040;SDS011;13816;53.628;9.950;2023-05-10T18:51:39;5.87;;;4.93;;
26040;SDS011;13816;53.628;9.950;2023-05-10T18:54:16;6.77;;;5.80;;
26040;SDS011;13816;53.628;9.950;2023-05-10T18:56:53;5.50;;;4.77;;
26040;SDS011;13816;53.628;9.950;2023-05-10T18:59:33;5.90;;;5.30;;
26040;SDS011;13816;53.628;9.950;2023-05-10T19:02:04;6.40;;;4.97;;
26040;SDS011;13816;53.628;9.950;2023-05-10T19:04:39;6.10;;;4.67;;
26040;SDS011;13816;53.628;9.950;2023-05-10T19:07:16;7.10;;;4.97;;
26040;SDS011;13816;53.628;9.950;2023-05-10T19:09:49;4.70;;;4.30;;
26040;SDS011;13816;53.628;9.950;2023-05-10T19:12:25;4.67;;;4.23;;
26040;SDS011;13816;53.628;9.950;2023-05-10T19:14:54;5.10;;;3.97;;
26040;SDS011;13816;53.628;9.950;2023-05-10T19:17:31;4.40;;;3.83;;
26040;SDS011;13816;53.628;9.950;2023-05-10T19:20:06;4.50;;;4.10;;
26040;SDS011;13816;53.628;9.950;2023-05-10T19:22:46;4.97;;;4.37;;
26040;SDS011;13816;53.628;9.950;2023-05-10T19:25:33;4.97;;;4.37;;
26040;SDS011;13816;53.628;9.950;2023-05-10T19:28:16;4.40;;;4.00;;
26040;SDS011;13816;53.628;9.950;2023-05-10T19:30:49;3.90;;;3.57;;
26040;SDS011;13816;53.628;9.950;2023-05-10T19:33:29;6.60;;;4.07;;
26040;SDS011;13816;53.628;9.950;2023-05-10T19:36:04;4.87;;;4.40;;
26040;SDS011;13816;53.628;9.950;2023-05-10T19:38:39;4.57;;;4.17;;
26040;SDS011;13816;53.628;9.950;2023-05-10T19:41:08;6.33;;;4.70;;
26040;SDS011;13816;53.628;9.950;2023-05-10T19:43:56;5.67;;;5.17;;
26040;SDS011;13816;53.628;9.950;2023-05-10T19:46:35;5.83;;;5.33;;
26040;SDS011;13816;53.628;9.950;2023-05-10T19:49:24;6.23;;;5.63;;
26040;SDS011;13816;53.628;9.950;2023-05-10T19:52:02;5.47;;;4.97;;
26040;SDS011;13816;53.628;9.950;2023-05-10T19:54:57;5.73;;;5.23;;
26040;SDS011;13816;53.628;9.950;2023-05-10T19:57:44;6.43;;;5.60;;
26040;SDS011;13816;53.628;9.950;2023-05-10T20:00:41;7.00;;;5.40;;
26040;SDS011;13816;53.628;9.950;2023-05-10T20:03:43;6.60;;;6.00;;
26040;SDS011;13816;53.628;9.950;2023-05-10T20:06:18;9.33;;;5.97;;
26040;SDS011;13816;53.628;9.950;2023-05-10T20:08:59;8.53;;;5.80;;
26040;SDS011;13816;53.628;9.950;2023-05-10T20:11:48;6.57;;;5.90;;
26040;SDS011;13816;53.628;9.950;2023-05-10T20:14:19;6.73;;;6.13;;
26040;SDS011;13816;53.628;9.950;2023-05-10T20:16:56;8.80;;;7.90;;
26040;SDS011;13816;53.628;9.950;2023-05-10T20:19:27;10.20;;;7.70;;
26040;SDS011;13816;53.628;9.950;2023-05-10T20:22:02;8.03;;;7.23;;
26040;SDS011;13816;53.628;9.950;2023-05-10T20:24:35;8.17;;;7.37;;
26040;SDS011;13816;53.628;9.950;2023-05-10T20:27:19;7.53;;;6.83;;
26040;SDS011;13816;53.628;9.950;2023-05-10T20:29:58;9.90;;;8.90;;
26040;SDS011;13816;53.628;9.950;2023-05-10T20:32:42;9.43;;;8.53;;
26040;SDS011;13816;53.628;9.950;2023-05-10T20:35:22;10.97;;;9.90;;
26040;SDS011;13816;53.628;9.950;2023-05-10T20:38:04;15.50;;;10.80;;
26040;SDS011;13816;53.628;9.950;2023-05-10T20:40:42;12.43;;;11.10;;
26040;SDS011;13816;53.628;9.950;2023-05-10T20:43:19;14.23;;;12.73;;
26040;SDS011;13816;53.628;9.950;2023-05-10T20:45:53;14.33;;;12.57;;
26040;SDS011;13816;53.628;9.950;2023-05-10T20:48:23;14.27;;;12.77;;
26040;SDS011;13816;53.628;9.950;2023-05-10T20:51:09;14.43;;;12.90;;
26040;SDS011;13816;53.628;9.950;2023-05-10T20:53:47;16.13;;;13.67;;
26040;SDS011;13816;53.628;9.950;2023-05-10T20:56:18;19.67;;;16.20;;
26040;SDS011;13816;53.628;9.950;2023-05-10T20:59:09;17.47;;;14.23;;
26040;SDS011;13816;53.628;9.950;2023-05-10T21:01:49;17.60;;;15.00;;
26040;SDS011;13816;53.628;9.950;2023-05-10T21:04:24;15.57;;;13.63;;
26040;SDS011;13816;53.628;9.950;2023-05-10T21:06:59;15.57;;;13.60;;
26040;SDS011;13816;53.628;9.950;2023-05-10T21:09:30;16.03;;;13.20;;
26040;SDS011;13816;53.628;9.950;2023-05-10T21:12:05;16.33;;;13.43;;
26040;SDS011;13816;53.628;9.950;2023-05-10T21:14:53;18.73;;;14.10;;
26040;SDS011;13816;53.628;9.950;2023-05-10T21:17:37;17.13;;;13.93;;
26040;SDS011;13816;53.628;9.950;2023-05-10T21:20:17;16.90;;;13.50;;
26040;SDS011;13816;53.628;9.950;2023-05-10T21:22:57;18.13;;;13.93;;
26040;SDS011;13816;53.628;9.950;2023-05-10T21:25:48;18.70;;;14.43;;
26040;SDS011;13816;53.628;9.950;2023-05-10T21:28:28;16.83;;;13.70;;
26040;SDS011;13816;53.628;9.950;2023-05-10T21:31:06;19.47;;;14.30;;
26040;SDS011;13816;53.628;9.950;2023-05-10T21:33:46;20.10;;;15.50;;
26040;SDS011;13816;53.628;9.950;2023-05-10T21:36:44;19.03;;;13.87;;
26040;SDS011;13816;53.628;9.950;2023-05-10T21:39:28;18.37;;;14.23;;
26040;SDS011;13816;53.628;9.950;2023-05-10T21:42:11;19.47;;;14.53;;
26040;SDS011;13816;53.628;9.950;2023-05-10T21:44:53;20.60;;;15.40;;
26040;SDS011;13816;53.628;9.950;2023-05-10T21:47:44;20.23;;;14.60;;
26040;SDS011;13816;53.628;9.950;2023-05-10T21:50:43;18.00;;;14.30;;
26040;SDS011;13816;53.628;9.950;2023-05-10T21:53:34;19.40;;;14.23;;
26040;SDS011;13816;53.628;9.950;2023-05-10T21:56:12;22.37;;;16.60;;
26040;SDS011;13816;53.628;9.950;2023-05-10T21:58:51;22.90;;;16.53;;
26040;SDS011;13816;53.628;9.950;2023-05-10T22:01:36;25.00;;;17.50;;
26040;SDS011;13816;53.628;9.950;2023-05-10T22:04:23;20.73;;;17.03;;
26040;SDS011;13816;53.628;9.950;2023-05-10T22:07:02;21.00;;;16.20;;
26040;SDS011;13816;53.628;9.950;2023-05-10T22:10:07;23.30;;;17.23;;
26040;SDS011;13816;53.628;9.950;2023-05-10T22:12:53;21.57;;;16.70;;
26040;SDS011;13816;53.628;9.950;2023-05-10T22:16:08;23.00;;;17.00;;
26040;SDS011;13816;53.628;9.950;2023-05-10T22:18:42;23.60;;;16.90;;
26040;SDS011;13816;53.628;9.950;2023-05-10T22:21:15;25.20;;;18.57;;
26040;SDS011;13816;53.628;9.950;2023-05-10T22:23:58;26.10;;;18.67;;
26040;SDS011;13816;53.628;9.950;2023-05-10T22:26:39;29.60;;;20.20;;
26040;SDS011;13816;53.628;9.950;2023-05-10T22:29:14;29.30;;;19.20;;
26040;SDS011;13816;53.628;9.950;2023-05-10T22:31:51;27.47;;;20.47;;
26040;SDS011;13816;53.628;9.950;2023-05-10T22:34:46;29.73;;;21.20;;
26040;SDS011;13816;53.628;9.950;2023-05-10T22:37:20;33.67;;;22.80;;